Time;durP1;ratioP1;P1;durP2;ratioP2;P2;SDS_P1;SDS_P2;PMS_P1;PMS_P2;Temp;Humidity;BMP_temperature;BMP_pressure;BME280_temperature;BME280_humidity;BME280_pressure;Samples;Min_cycle;Max_cycle;Signal;HPM_P1;HPM_P2
2023/04/15 00:01:08;;;;;;;5.95;4.47;;;;;;;;;;4989082;28;20176;-75
2023/04/15 00:03:35;;;;;;;6.18;4.35;;;;;;;;;;4981013;28;20572;-76
2023/04/15 00:06:02;;;;;;;5.30;4.13;;;;;;;;;;4996997;28;20054;-76
2023/04/15 00:08:29;;;;;;;9.70;4.25;;;;;;;;;;4996095;28;20064;-76
2023/04/15 00:11:01;;;;;;;6.95;4.35;;;;;;;;;;4990675;28;20068;-76
2023/04/15 00:13:28;;;;;;;6.13;3.78;;;;;;;;;;4967433;28;20042;-74
2023/04/15 00:15:55;;;;;;;5.50;3.83;;;;;;;;;;4980421;28;20062;-75
2023/04/15 00:18:23;;;;;;;8.27;4.78;;;;;;;;;;4995543;28;20506;-75
2023/04/15 00:20:49;;;;;;;7.22;3.95;;;;;;;;;;4992377;28;20060;-75
2023/04/15 00:23:16;;;;;;;4.68;3.63;;;;;;;;;;4995550;28;20072;-75
2023/04/15 00:25:43;;;;;;;9.43;4.10;;;;;;;;;;4978025;28;20054;-76
2023/04/15 00:28:10;;;;;;;7.05;3.85;;;;;;;;;;4993371;28;20060;-75
2023/04/15 00:30:37;;;;;;;7.15;3.97;;;;;;;;;;4981774;28;20133;-76
2023/04/15 00:33:04;;;;;;;7.07;3.58;;;;;;;;;;4976104;28;20131;-75
2023/04/15 00:35:31;;;;;;;9.65;4.20;;;;;;;;;;5011447;28;20053;-76
2023/04/15 00:37:58;;;;;;;4.22;3.83;;;;;;;;;;4975309;28;20478;-77
2023/04/15 00:40:26;;;;;;;8.15;4.18;;;;;;;;;;4975803;28;20060;-76
2023/04/15 00:42:53;;;;;;;5.93;4.10;;;;;;;;;;4984801;28;20051;-76
2023/04/15 00:45:20;;;;;;;8.73;4.40;;;;;;;;;;4976094;28;20502;-77
2023/04/15 00:47:47;;;;;;;8.93;4.22;;;;;;;;;;4963916;28;20422;-76
2023/04/15 00:50:14;;;;;;;7.78;3.90;;;;;;;;;;4964461;28;20046;-75
2023/04/15 00:52:40;;;;;;;10.45;4.60;;;;;;;;;;4994465;28;20502;-75
2023/04/15 00:55:08;;;;;;;7.25;4.10;;;;;;;;;;4978812;28;20058;-75
2023/04/15 00:57:35;;;;;;;7.57;4.35;;;;;;;;;;4976523;28;20058;-75
2023/04/15 01:00:03;;;;;;;8.32;4.35;;;;;;;;;;4995118;28;20491;-75
2023/04/15 01:02:30;;;;;;;12.40;4.22;;;;;;;;;;4978590;28;20057;-75
2023/04/15 01:04:57;;;;;;;9.68;4.53;;;;;;;;;;4995209;28;20069;-75
2023/04/15 01:07:25;;;;;;;11.85;5.53;;;;;;;;;;5006888;28;20053;-75
2023/04/15 01:09:51;;;;;;;6.88;4.47;;;;;;;;;;4962269;28;20132;-75
2023/04/15 01:12:18;;;;;;;7.38;4.57;;;;;;;;;;4978899;28;20054;-75
2023/04/15 01:14:45;;;;;;;8.85;4.38;;;;;;;;;;4977391;28;20062;-74
2023/04/15 01:17:12;;;;;;;8.82;4.63;;;;;;;;;;4978797;28;20425;-74
2023/04/15 01:19:39;;;;;;;7.90;4.18;;;;;;;;;;4989294;28;20046;-74
2023/04/15 01:22:05;;;;;;;8.52;4.60;;;;;;;;;;4994395;28;20062;-75
2023/04/15 01:24:33;;;;;;;6.47;4.20;;;;;;;;;;4997529;28;20076;-76
2023/04/15 01:26:59;;;;;;;8.48;4.82;;;;;;;;;;4975637;28;20066;-76
2023/04/15 01:29:26;;;;;;;7.50;4.25;;;;;;;;;;4959347;28;20046;-76
2023/04/15 01:31:54;;;;;;;5.47;3.67;;;;;;;;;;4959034;28;20055;-75
2023/04/15 01:34:21;;;;;;;8.93;4.50;;;;;;;;;;4975094;28;20090;-75
2023/04/15 01:36:48;;;;;;;7.50;4.47;;;;;;;;;;4975356;28;20057;-76
2023/04/15 01:39:15;;;;;;;8.27;4.45;;;;;;;;;;4992994;28;20053;-77
2023/04/15 01:41:41;;;;;;;9.82;4.70;;;;;;;;;;5013995;28;20076;-76
2023/04/15 01:44:08;;;;;;;8.20;4.57;;;;;;;;;;4998048;28;20060;-76
2023/04/15 01:46:35;;;;;;;5.68;4.55;;;;;;;;;;4982296;28;20119;-76
2023/04/15 01:49:02;;;;;;;8.48;4.05;;;;;;;;;;4997703;28;20053;-76
2023/04/15 01:51:29;;;;;;;6.18;4.05;;;;;;;;;;5026935;28;20081;-75
2023/04/15 01:53:55;;;;;;;9.60;4.03;;;;;;;;;;5004517;28;20394;-75
2023/04/15 01:56:23;;;;;;;9.27;4.50;;;;;;;;;;5008023;28;20057;-75
2023/04/15 01:58:50;;;;;;;7.18;4.72;;;;;;;;;;4994060;28;20425;-76
2023/04/15 02:01:18;;;;;;;7.18;4.63;;;;;;;;;;4992086;28;20065;-76
2023/04/15 02:03:46;;;;;;;7.47;4.90;;;;;;;;;;4978263;28;20050;-76
2023/04/15 02:06:13;;;;;;;8.30;4.85;;;;;;;;;;4983584;28;20057;-76
2023/04/15 02:08:40;;;;;;;8.85;4.53;;;;;;;;;;4993754;28;20558;-76
2023/04/15 02:11:07;;;;;;;5.05;4.10;;;;;;;;;;5003657;28;20058;-75
2023/04/15 02:13:33;;;;;;;7.07;4.30;;;;;;;;;;4974987;28;20049;-76
2023/04/15 02:16:00;;;;;;;11.27;5.38;;;;;;;;;;4989906;28;20092;-76
2023/04/15 02:18:27;;;;;;;10.02;5.45;;;;;;;;;;4997418;28;20135;-76
2023/04/15 02:20:56;;;;;;;11.30;5.88;;;;;;;;;;4992110;28;20043;-75
2023/04/15 02:23:23;;;;;;;9.95;4.65;;;;;;;;;;4974573;28;20062;-77
2023/04/15 02:25:50;;;;;;;12.73;5.57;;;;;;;;;;4993432;28;20061;-79
2023/04/15 02:28:20;;;;;;;10.65;5.43;;;;;;;;;;4972022;28;20050;-74
2023/04/15 02:30:51;;;;;;;9.10;5.75;;;;;;;;;;4982238;28;20057;-74
2023/04/15 02:33:20;;;;;;;9.55;4.45;;;;;;;;;;4958089;28;20502;-75
2023/04/15 02:35:47;;;;;;;7.68;4.63;;;;;;;;;;4974879;28;20054;-75
2023/04/15 02:38:15;;;;;;;10.52;4.03;;;;;;;;;;4979734;28;20057;-75
2023/04/15 02:40:42;;;;;;;9.32;4.20;;;;;;;;;;4994442;28;20058;-75
2023/04/15 02:43:09;;;;;;;6.53;4.40;;;;;;;;;;5009418;28;20113;-75
2023/04/15 02:45:36;;;;;;;12.65;4.93;;;;;;;;;;5003747;28;20422;-75
2023/04/15 02:48:05;;;;;;;7.75;4.43;;;;;;;;;;5003868;28;20065;-74
2023/04/15 02:50:32;;;;;;;7.90;4.25;;;;;;;;;;5017176;28;20065;-73
2023/04/15 02:53:00;;;;;;;7.20;5.15;;;;;;;;;;5009073;28;20068;-73
2023/04/15 02:55:27;;;;;;;8.82;4.43;;;;;;;;;;4993197;28;20058;-74
2023/04/15 02:57:54;;;;;;;7.80;4.55;;;;;;;;;;5001042;28;20096;-73
2023/04/15 03:00:24;;;;;;;6.13;4.65;;;;;;;;;;5008386;28;20052;-74
2023/04/15 03:02:55;;;;;;;11.68;5.15;;;;;;;;;;5010270;28;20049;-74
2023/04/15 03:05:25;;;;;;;6.68;5.00;;;;;;;;;;4993091;28;20065;-74
2023/04/15 03:07:52;;;;;;;9.05;4.68;;;;;;;;;;4993172;28;20061;-75
2023/04/15 03:10:19;;;;;;;7.68;4.22;;;;;;;;;;5008876;28;20049;-75
2023/04/15 03:12:46;;;;;;;5.97;4.63;;;;;;;;;;4968843;28;20061;-74
2023/04/15 03:15:13;;;;;;;12.48;5.13;;;;;;;;;;4993121;28;20481;-74
2023/04/15 03:17:40;;;;;;;5.90;4.60;;;;;;;;;;4979512;28;20046;-75
2023/04/15 03:20:07;;;;;;;9.02;4.90;;;;;;;;;;4971862;28;20387;-75
2023/04/15 03:22:34;;;;;;;8.32;5.03;;;;;;;;;;4985110;28;20084;-75
2023/04/15 03:25:01;;;;;;;7.78;4.85;;;;;;;;;;4992938;28;20513;-75
2023/04/15 03:27:27;;;;;;;7.78;4.50;;;;;;;;;;4954585;28;20073;-75
2023/04/15 03:29:55;;;;;;;6.85;4.68;;;;;;;;;;4973341;28;20054;-75
2023/04/15 03:32:22;;;;;;;7.95;4.63;;;;;;;;;;4957290;28;20105;-76
2023/04/15 03:34:49;;;;;;;8.18;4.47;;;;;;;;;;4957441;28;20062;-75
2023/04/15 03:37:15;;;;;;;6.20;4.78;;;;;;;;;;4976431;28;20061;-75
2023/04/15 03:39:42;;;;;;;7.70;5.10;;;;;;;;;;4992604;28;20057;-75
2023/04/15 03:42:09;;;;;;;7.13;5.20;;;;;;;;;;4993490;28;20062;-75
2023/04/15 03:44:36;;;;;;;10.07;5.07;;;;;;;;;;4993590;28;20058;-75
2023/04/15 03:47:02;;;;;;;5.75;4.78;;;;;;;;;;4990117;28;20077;-75
2023/04/15 03:49:29;;;;;;;9.45;4.65;;;;;;;;;;4975084;28;20062;-75
2023/04/15 03:51:56;;;;;;;7.97;4.65;;;;;;;;;;4992477;28;20057;-75
2023/04/15 03:54:23;;;;;;;7.03;4.50;;;;;;;;;;4976417;28;20054;-75
2023/04/15 03:56:49;;;;;;;7.90;4.18;;;;;;;;;;4991077;28;20054;-75
2023/04/15 03:59:16;;;;;;;6.35;4.50;;;;;;;;;;4992913;28;20058;-75
2023/04/15 04:01:43;;;;;;;9.05;4.50;;;;;;;;;;4992511;28;20060;-75
2023/04/15 04:04:10;;;;;;;7.80;4.70;;;;;;;;;;4976521;28;20064;-75
2023/04/15 04:06:37;;;;;;;9.55;4.95;;;;;;;;;;4992328;28;20422;-76
2023/04/15 04:09:03;;;;;;;8.60;5.43;;;;;;;;;;4992254;28;20458;-74
2023/04/15 04:11:30;;;;;;;11.70;4.72;;;;;;;;;;4992588;28;20045;-75
2023/04/15 04:13:57;;;;;;;10.52;4.40;;;;;;;;;;4992501;28;20073;-75
2023/04/15 04:16:24;;;;;;;8.05;4.25;;;;;;;;;;4981736;28;20054;-74
2023/04/15 04:18:51;;;;;;;7.20;5.13;;;;;;;;;;4987323;28;20086;-75
2023/04/15 04:21:17;;;;;;;7.65;4.55;;;;;;;;;;4995749;28;20528;-74
2023/04/15 04:23:44;;;;;;;6.45;4.57;;;;;;;;;;5003385;28;20058;-75
2023/04/15 04:26:11;;;;;;;4.85;4.10;;;;;;;;;;4997416;28;20076;-75
2023/04/15 04:28:39;;;;;;;7.88;4.18;;;;;;;;;;4994762;28;20054;-75
2023/04/15 04:31:06;;;;;;;6.82;4.00;;;;;;;;;;4995818;28;20137;-75
2023/04/15 04:33:33;;;;;;;5.95;4.20;;;;;;;;;;4984781;28;20081;-74
2023/04/15 04:36:00;;;;;;;7.05;4.63;;;;;;;;;;5003423;28;20061;-75
2023/04/15 04:38:26;;;;;;;16.50;7.55;;;;;;;;;;4985383;28;20066;-75
2023/04/15 04:40:53;;;;;;;8.43;5.68;;;;;;;;;;4978889;28;20045;-74
2023/04/15 04:43:20;;;;;;;7.82;5.32;;;;;;;;;;5003642;28;20061;-73
2023/04/15 04:45:46;;;;;;;10.57;5.38;;;;;;;;;;4983802;28;20062;-74
2023/04/15 04:48:13;;;;;;;9.45;5.38;;;;;;;;;;4995935;28;20769;-74
2023/04/15 04:50:40;;;;;;;8.30;6.10;;;;;;;;;;4995467;28;20077;-75
2023/04/15 04:53:07;;;;;;;9.57;5.57;;;;;;;;;;4995667;28;20062;-74
2023/04/15 04:55:35;;;;;;;9.65;5.10;;;;;;;;;;4996127;28;20065;-75
2023/04/15 04:58:02;;;;;;;7.55;5.40;;;;;;;;;;4995338;28;20403;-75
2023/04/15 05:00:29;;;;;;;10.07;5.13;;;;;;;;;;4977465;28;20392;-75
2023/04/15 05:02:56;;;;;;;7.97;4.65;;;;;;;;;;4993239;28;20058;-76
2023/04/15 05:05:23;;;;;;;7.78;4.63;;;;;;;;;;4981285;28;20097;-77
2023/04/15 05:07:53;;;;;;;9.55;4.53;;;;;;;;;;4958544;28;20419;-76
2023/04/15 05:10:19;;;;;;;7.55;5.10;;;;;;;;;;4976318;28;20054;-76
2023/04/15 05:12:46;;;;;;;9.05;4.65;;;;;;;;;;4960393;28;20065;-76
2023/04/15 05:15:13;;;;;;;6.18;4.07;;;;;;;;;;4972186;28;20060;-75
2023/04/15 05:17:40;;;;;;;6.28;4.70;;;;;;;;;;4991241;28;20060;-75
2023/04/15 05:20:08;;;;;;;7.78;4.40;;;;;;;;;;4976266;28;20050;-77
2023/04/15 05:22:35;;;;;;;8.75;4.32;;;;;;;;;;4991940;28;20141;-77
2023/04/15 05:25:02;;;;;;;12.85;4.32;;;;;;;;;;4976193;28;20057;-76
2023/04/15 05:27:29;;;;;;;7.75;4.47;;;;;;;;;;4992195;28;20051;-76
2023/04/15 05:29:56;;;;;;;8.27;4.50;;;;;;;;;;4981200;28;20061;-76
2023/04/15 05:32:23;;;;;;;6.97;4.07;;;;;;;;;;4985036;28;20089;-77
2023/04/15 05:34:51;;;;;;;7.70;4.78;;;;;;;;;;4987154;28;20421;-76
2023/04/15 05:37:19;;;;;;;12.10;4.80;;;;;;;;;;4995323;28;20054;-76
2023/04/15 05:39:47;;;;;;;8.00;4.75;;;;;;;;;;5011015;28;20054;-76
2023/04/15 05:42:14;;;;;;;5.95;4.72;;;;;;;;;;4979001;28;20058;-76
2023/04/15 05:44:41;;;;;;;10.40;5.05;;;;;;;;;;4978491;28;20049;-76
2023/04/15 05:47:09;;;;;;;7.35;5.00;;;;;;;;;;4995300;28;20049;-75
2023/04/15 05:49:36;;;;;;;8.30;5.25;;;;;;;;;;4979338;28;20156;-76
2023/04/15 05:52:03;;;;;;;11.18;6.20;;;;;;;;;;4995576;28;20054;-76
2023/04/15 05:54:30;;;;;;;8.27;5.15;;;;;;;;;;4995720;28;20081;-75
2023/04/15 05:56:57;;;;;;;6.38;4.47;;;;;;;;;;4995230;28;20058;-76
2023/04/15 05:59:24;;;;;;;9.05;5.35;;;;;;;;;;4995456;28;20104;-75
2023/04/15 06:01:52;;;;;;;9.40;5.80;;;;;;;;;;4979394;28;20537;-76
2023/04/15 06:04:19;;;;;;;14.55;6.22;;;;;;;;;;4992941;28;20490;-77
2023/04/15 06:06:46;;;;;;;8.80;5.65;;;;;;;;;;4995799;28;20141;-77
2023/04/15 06:09:12;;;;;;;9.50;5.18;;;;;;;;;;4979132;28;20694;-75
2023/04/15 06:11:40;;;;;;;8.65;5.50;;;;;;;;;;4977878;28;20054;-75
2023/04/15 06:14:07;;;;;;;7.68;5.00;;;;;;;;;;4994047;28;20089;-79
2023/04/15 06:16:35;;;;;;;7.72;5.03;;;;;;;;;;4961755;28;20563;-75
2023/04/15 06:19:02;;;;;;;10.75;5.50;;;;;;;;;;4993019;28;20096;-75
2023/04/15 06:21:32;;;;;;;7.30;5.00;;;;;;;;;;4992170;28;20417;-75
2023/04/15 06:24:02;;;;;;;7.68;4.40;;;;;;;;;;4974489;28;20049;-75
2023/04/15 06:26:30;;;;;;;7.35;4.22;;;;;;;;;;4972890;28;20091;-74
2023/04/15 06:28:56;;;;;;;7.90;4.05;;;;;;;;;;4972821;28;20102;-75
2023/04/15 06:31:23;;;;;;;5.82;4.18;;;;;;;;;;4972523;28;20050;-75
2023/04/15 06:33:50;;;;;;;8.93;4.25;;;;;;;;;;4957719;28;20053;-75
2023/04/15 06:36:16;;;;;;;7.88;4.32;;;;;;;;;;4976381;28;20069;-75
2023/04/15 06:38:43;;;;;;;5.82;3.88;;;;;;;;;;4976040;28;20057;-74
2023/04/15 06:41:10;;;;;;;7.35;3.90;;;;;;;;;;4959844;28;20050;-74
2023/04/15 06:43:37;;;;;;;10.32;4.20;;;;;;;;;;4959746;28;20477;-75
2023/04/15 06:46:04;;;;;;;6.63;3.92;;;;;;;;;;4973840;28;20061;-74
2023/04/15 06:48:31;;;;;;;6.15;4.00;;;;;;;;;;4992043;28;20077;-74
2023/04/15 06:51:04;;;;;;;6.32;3.47;;;;;;;;;;4991459;28;20417;-77
2023/04/15 06:53:32;;;;;;;7.40;4.03;;;;;;;;;;4992182;28;20426;-79
2023/04/15 06:55:59;;;;;;;6.78;4.63;;;;;;;;;;4975776;28;20054;-78
2023/04/15 06:58:26;;;;;;;7.05;4.47;;;;;;;;;;4972653;28;20058;-76
2023/04/15 07:00:52;;;;;;;7.47;4.78;;;;;;;;;;4972900;28;20062;-75
2023/04/15 07:03:19;;;;;;;8.05;5.28;;;;;;;;;;4982639;28;20066;-75
2023/04/15 07:05:46;;;;;;;7.85;4.43;;;;;;;;;;4971228;28;20058;-74
2023/04/15 07:08:13;;;;;;;6.38;4.25;;;;;;;;;;4971226;28;20058;-75
2023/04/15 07:10:40;;;;;;;5.85;4.47;;;;;;;;;;4970847;28;20494;-75
2023/04/15 07:13:07;;;;;;;9.45;5.45;;;;;;;;;;4987998;28;20065;-75
2023/04/15 07:15:34;;;;;;;7.00;4.72;;;;;;;;;;4982076;28;20112;-74
2023/04/15 07:18:01;;;;;;;12.02;4.60;;;;;;;;;;4971132;28;20090;-74
2023/04/15 07:20:28;;;;;;;7.90;5.20;;;;;;;;;;5003151;28;20055;-74
2023/04/15 07:22:55;;;;;;;9.10;4.68;;;;;;;;;;4986621;28;20097;-75
2023/04/15 07:25:22;;;;;;;11.30;4.78;;;;;;;;;;4995107;28;20058;-75
2023/04/15 07:27:49;;;;;;;8.15;5.55;;;;;;;;;;4972784;28;20061;-73
2023/04/15 07:30:15;;;;;;;13.38;5.97;;;;;;;;;;4972551;28;20054;-73
2023/04/15 07:32:42;;;;;;;8.20;5.82;;;;;;;;;;4972995;28;20058;-73
2023/04/15 07:35:09;;;;;;;9.80;4.95;;;;;;;;;;4958162;28;20062;-72
2023/04/15 07:37:36;;;;;;;7.90;4.20;;;;;;;;;;4957675;28;20097;-72
2023/04/15 07:40:04;;;;;;;8.73;4.50;;;;;;;;;;4973075;28;20499;-72
2023/04/15 07:42:30;;;;;;;7.07;4.03;;;;;;;;;;4957528;28;20050;-73
2023/04/15 07:44:57;;;;;;;6.82;4.20;;;;;;;;;;4973775;28;20157;-73
2023/04/15 07:47:24;;;;;;;7.28;4.57;;;;;;;;;;4989769;28;20423;-73
2023/04/15 07:49:51;;;;;;;7.18;4.28;;;;;;;;;;4957419;28;20121;-73
2023/04/15 07:52:18;;;;;;;8.70;4.75;;;;;;;;;;4989686;28;20054;-72
2023/04/15 07:54:45;;;;;;;9.88;4.72;;;;;;;;;;4994531;28;20052;-73
2023/04/15 07:57:11;;;;;;;6.25;4.75;;;;;;;;;;4996808;28;20057;-72
2023/04/15 07:59:38;;;;;;;10.40;5.32;;;;;;;;;;4996986;28;20141;-73
2023/04/15 08:02:05;;;;;;;8.10;4.88;;;;;;;;;;4996525;28;20644;-73
2023/04/15 08:04:32;;;;;;;9.80;6.35;;;;;;;;;;4991637;28;20502;-73
2023/04/15 08:06:59;;;;;;;9.57;5.47;;;;;;;;;;4996628;28;20049;-73
2023/04/15 08:09:26;;;;;;;9.13;4.05;;;;;;;;;;4996343;28;20054;-73
2023/04/15 08:11:53;;;;;;;9.55;5.03;;;;;;;;;;4960770;28;20050;-72
2023/04/15 08:14:19;;;;;;;7.18;4.78;;;;;;;;;;4980033;28;20410;-73
2023/04/15 08:16:46;;;;;;;10.40;4.82;;;;;;;;;;4996348;28;20060;-72
2023/04/15 08:19:13;;;;;;;8.05;4.82;;;;;;;;;;4996292;28;20069;-73
2023/04/15 08:21:39;;;;;;;9.85;5.05;;;;;;;;;;4996291;28;20050;-72
2023/04/15 08:24:06;;;;;;;7.22;4.38;;;;;;;;;;4994141;28;20056;-73
2023/04/15 08:26:33;;;;;;;6.43;3.88;;;;;;;;;;4976585;28;20089;-73
2023/04/15 08:29:00;;;;;;;5.75;3.55;;;;;;;;;;4976352;28;20061;-73
2023/04/15 08:31:27;;;;;;;5.00;3.42;;;;;;;;;;4976232;28;20495;-73
2023/04/15 08:33:56;;;;;;;7.22;3.75;;;;;;;;;;4976742;28;20058;-73
2023/04/15 08:36:23;;;;;;;7.55;3.80;;;;;;;;;;4995671;28;20053;-73
2023/04/15 08:38:50;;;;;;;11.63;4.15;;;;;;;;;;5012012;28;20498;-73
2023/04/15 08:41:24;;;;;;;7.25;3.40;;;;;;;;;;4996027;28;20050;-73
2023/04/15 08:44:00;;;;;;;8.40;4.00;;;;;;;;;;4995687;28;20053;-73
2023/04/15 08:46:27;;;;;;;7.88;3.50;;;;;;;;;;4976122;28;20062;-73
2023/04/15 08:48:58;;;;;;;5.82;2.85;;;;;;;;;;4960245;28;20062;-73
2023/04/15 08:51:25;;;;;;;10.10;4.18;;;;;;;;;;4975813;28;20414;-73
2023/04/15 08:53:52;;;;;;;5.13;3.38;;;;;;;;;;4959974;28;20062;-73
2023/04/15 08:56:19;;;;;;;8.38;3.45;;;;;;;;;;4978050;28;20064;-73
2023/04/15 08:58:45;;;;;;;8.00;3.25;;;;;;;;;;4978749;28;20055;-73
2023/04/15 09:01:12;;;;;;;7.18;3.97;;;;;;;;;;4976453;28;20410;-73
2023/04/15 09:03:39;;;;;;;3.88;3.08;;;;;;;;;;4975804;28;20094;-73
2023/04/15 09:06:06;;;;;;;5.50;3.60;;;;;;;;;;4975109;28;20134;-73
2023/04/15 09:08:34;;;;;;;5.60;3.67;;;;;;;;;;4959553;28;20050;-74
2023/04/15 09:11:02;;;;;;;6.72;3.88;;;;;;;;;;4976036;28;20113;-75
2023/04/15 09:13:29;;;;;;;7.22;3.70;;;;;;;;;;4976878;28;20054;-72
2023/04/15 09:15:57;;;;;;;6.93;3.47;;;;;;;;;;4975980;28;20054;-72
2023/04/15 09:18:34;;;;;;;11.38;4.43;;;;;;;;;;4976081;28;20061;-76
2023/04/15 09:21:05;;;;;;;7.93;4.18;;;;;;;;;;4975858;28;20094;-76
2023/04/15 09:23:32;;;;;;;7.50;3.90;;;;;;;;;;4990689;28;20061;-75
2023/04/15 09:26:01;;;;;;;8.27;3.58;;;;;;;;;;4977611;28;20061;-76
2023/04/15 09:28:28;;;;;;;6.93;3.67;;;;;;;;;;4945923;28;20057;-77
2023/04/15 09:30:59;;;;;;;7.60;4.47;;;;;;;;;;4984378;28;20054;-76
2023/04/15 09:33:27;;;;;;;7.35;3.33;;;;;;;;;;4993099;28;20050;-76
2023/04/15 09:36:04;;;;;;;5.50;3.08;;;;;;;;;;4963204;28;20058;-76
2023/04/15 09:38:33;;;;;;;5.57;3.30;;;;;;;;;;4976622;28;20141;-77
2023/04/15 09:41:01;;;;;;;5.18;3.22;;;;;;;;;;4975796;28;20046;-77
2023/04/15 09:43:37;;;;;;;7.53;3.90;;;;;;;;;;4975409;28;20426;-77
2023/04/15 09:46:05;;;;;;;5.38;3.53;;;;;;;;;;4958924;28;20118;-77
2023/04/15 09:48:35;;;;;;;6.53;3.42;;;;;;;;;;4992833;28;20096;-77
2023/04/15 09:51:02;;;;;;;4.95;2.92;;;;;;;;;;4961042;28;20089;-76
2023/04/15 09:53:29;;;;;;;4.28;3.17;;;;;;;;;;4993017;28;20053;-77
2023/04/15 09:56:01;;;;;;;5.10;2.97;;;;;;;;;;4964130;28;20062;-78
2023/04/15 09:58:32;;;;;;;4.78;3.40;;;;;;;;;;4959351;28;20058;-82
2023/04/15 10:01:02;;;;;;;3.60;3.03;;;;;;;;;;4974887;28;20093;-77
2023/04/15 10:03:30;;;;;;;4.85;2.97;;;;;;;;;;4941357;28;20076;-76
2023/04/15 10:05:59;;;;;;;5.57;3.20;;;;;;;;;;4976912;28;20062;-75
2023/04/15 10:08:28;;;;;;;6.05;2.90;;;;;;;;;;4962085;28;20093;-78
2023/04/15 10:10:55;;;;;;;4.70;2.40;;;;;;;;;;4980475;28;20061;-78
2023/04/15 10:13:24;;;;;;;6.05;3.08;;;;;;;;;;4980900;28;20065;-75
2023/04/15 10:15:55;;;;;;;5.30;3.05;;;;;;;;;;4959724;28;20046;-84
2023/04/15 10:18:24;;;;;;;4.13;2.40;;;;;;;;;;4973577;28;20065;-74
2023/04/15 10:20:51;;;;;;;5.47;2.97;;;;;;;;;;4958749;28;20711;-71
2023/04/15 10:23:19;;;;;;;3.38;1.95;;;;;;;;;;4974412;28;20043;-71
2023/04/15 10:25:46;;;;;;;4.03;1.95;;;;;;;;;;4974697;28;20525;-71
2023/04/15 10:28:14;;;;;;;8.10;2.67;;;;;;;;;;4974563;28;20062;-71
2023/04/15 10:30:42;;;;;;;3.42;2.10;;;;;;;;;;4958918;28;20064;-72
2023/04/15 10:33:09;;;;;;;3.10;1.83;;;;;;;;;;4990502;28;20050;-72
2023/04/15 10:35:36;;;;;;;3.63;1.80;;;;;;;;;;4974392;28;20133;-73
2023/04/15 10:38:29;;;;;;;5.88;1.90;;;;;;;;;;4974762;28;20050;-72
2023/04/15 10:41:15;;;;;;;3.65;2.20;;;;;;;;;;4977093;28;20061;-72
2023/04/15 10:43:58;;;;;;;4.53;2.13;;;;;;;;;;4966606;28;20049;-74
2023/04/15 10:46:43;;;;;;;4.72;2.42;;;;;;;;;;5006088;28;20422;-72
2023/04/15 10:49:15;;;;;;;3.38;2.15;;;;;;;;;;4974501;28;20050;-72
2023/04/15 10:51:46;;;;;;;;;;;;;;;;;;4975525;28;20053;-72
2023/04/15 10:54:26;;;;;;;3.17;1.92;;;;;;;;;;4966393;28;19932;-72
2023/04/15 10:57:01;;;;;;;2.53;2.03;;;;;;;;;;4985357;28;20054;-72
2023/04/15 10:59:29;;;;;;;3.47;2.20;;;;;;;;;;4985929;28;20062;-72
2023/04/15 11:01:59;;;;;;;5.03;2.30;;;;;;;;;;4958182;28;20121;-72
2023/04/15 11:04:57;;;;;;;4.40;2.60;;;;;;;;;;4990934;28;20076;-72
2023/04/15 11:07:37;;;;;;;5.68;2.58;;;;;;;;;;4994715;28;20152;-72
2023/04/15 11:10:16;;;;;;;6.70;2.38;;;;;;;;;;4987443;28;20057;-72
2023/04/15 11:12:50;;;;;;;3.13;2.10;;;;;;;;;;4999162;28;20529;-73
2023/04/15 11:15:29;;;;;;;3.67;2.60;;;;;;;;;;4989344;28;20050;-74
2023/04/15 11:18:18;;;;;;;4.90;3.00;;;;;;;;;;4974889;28;20057;-75
2023/04/15 11:20:47;;;;;;;6.68;3.47;;;;;;;;;;4971554;28;20112;-72
2023/04/15 11:23:14;;;;;;;5.32;2.90;;;;;;;;;;4980277;28;20054;-74
2023/04/15 11:25:42;;;;;;;4.15;2.70;;;;;;;;;;4973951;28;20437;-77
2023/04/15 11:28:10;;;;;;;5.72;3.85;;;;;;;;;;4963285;28;20433;-73
2023/04/15 11:30:38;;;;;;;5.15;3.90;;;;;;;;;;4986432;28;20085;-80
2023/04/15 11:33:08;;;;;;;5.97;3.53;;;;;;;;;;4985331;28;20538;-75
2023/04/15 11:35:35;;;;;;;3.45;2.50;;;;;;;;;;4986462;28;20081;-74
2023/04/15 11:38:13;;;;;;;3.55;3.25;;;;;;;;;;4976418;28;20609;-72
2023/04/15 11:40:40;;;;;;;7.85;2.90;;;;;;;;;;4974619;28;20132;-72
2023/04/15 11:43:20;;;;;;;6.05;2.70;;;;;;;;;;4989961;28;20058;-72
2023/04/15 11:45:47;;;;;;;7.22;2.58;;;;;;;;;;4989431;28;20137;-72
2023/04/15 11:48:17;;;;;;;4.35;2.20;;;;;;;;;;4994048;28;20058;-72
2023/04/15 11:50:44;;;;;;;7.07;2.78;;;;;;;;;;4976539;28;20053;-72
2023/04/15 11:53:12;;;;;;;7.35;3.20;;;;;;;;;;4985314;28;20049;-72
2023/04/15 11:55:52;;;;;;;6.20;2.30;;;;;;;;;;4976437;28;20148;-72
2023/04/15 11:58:25;;;;;;;3.05;2.08;;;;;;;;;;4970698;28;20066;-81
2023/04/15 12:00:59;;;;;;;3.97;2.33;;;;;;;;;;4981168;28;20050;-73
2023/04/15 12:03:31;;;;;;;5.22;2.00;;;;;;;;;;5002512;28;20056;-73
2023/04/15 12:06:21;;;;;;;2.35;1.58;;;;;;;;;;4986107;28;20128;-72
2023/04/15 12:09:08;;;;;;;4.60;2.10;;;;;;;;;;4967578;28;20064;-73
2023/04/15 12:11:45;;;;;;;3.45;2.03;;;;;;;;;;4975091;28;20670;-73
2023/04/15 12:14:29;;;;;;;2.85;1.98;;;;;;;;;;4994876;28;20050;-76
2023/04/15 12:16:59;;;;;;;4.43;2.15;;;;;;;;;;4962241;28;20060;-76
2023/04/15 12:19:35;;;;;;;3.67;2.00;;;;;;;;;;4975938;28;20054;-76
2023/04/15 12:22:12;;;;;;;5.95;2.05;;;;;;;;;;4987543;28;20525;-76
2023/04/15 12:24:39;;;;;;;2.88;1.90;;;;;;;;;;4977628;28;20049;-76
2023/04/15 12:27:07;;;;;;;3.97;2.50;;;;;;;;;;4976367;28;20391;-76
2023/04/15 12:29:35;;;;;;;4.55;2.90;;;;;;;;;;5007765;28;20054;-75
2023/04/15 12:32:05;;;;;;;2.80;2.47;;;;;;;;;;4991374;28;20054;-76
2023/04/15 12:34:34;;;;;;;5.45;3.20;;;;;;;;;;5007915;28;20079;-76
2023/04/15 12:37:03;;;;;;;5.20;3.85;;;;;;;;;;4960305;28;20506;-76
2023/04/15 12:39:41;;;;;;;5.28;4.13;;;;;;;;;;4995725;28;20054;-75
2023/04/15 12:42:08;;;;;;;7.30;3.63;;;;;;;;;;5008918;28;20503;-75
2023/04/15 12:44:36;;;;;;;4.55;3.40;;;;;;;;;;5005621;28;20049;-75
2023/04/15 12:47:04;;;;;;;6.07;3.42;;;;;;;;;;4989753;28;20054;-74
2023/04/15 12:49:31;;;;;;;4.28;2.80;;;;;;;;;;4991860;28;20053;-75
2023/04/15 12:51:59;;;;;;;2.25;1.85;;;;;;;;;;4985734;28;20060;-75
2023/04/15 12:54:27;;;;;;;2.85;2.55;;;;;;;;;;4972952;28;20054;-75
2023/04/15 12:56:54;;;;;;;2.63;1.95;;;;;;;;;;4960914;28;20153;-75
2023/04/15 12:59:22;;;;;;;2.65;2.42;;;;;;;;;;4960925;28;20075;-75
2023/04/15 13:01:50;;;;;;;4.22;2.17;;;;;;;;;;4992147;28;20049;-75
2023/04/15 13:04:18;;;;;;;4.72;1.95;;;;;;;;;;4989175;28;20076;-75
2023/04/15 13:06:45;;;;;;;2.63;1.40;;;;;;;;;;4961964;28;20414;-75
2023/04/15 13:09:12;;;;;;;3.20;1.83;;;;;;;;;;4991967;28;20121;-75
2023/04/15 13:11:39;;;;;;;3.50;1.67;;;;;;;;;;4987100;28;20129;-76
2023/04/15 13:14:07;;;;;;;3.75;1.92;;;;;;;;;;4991688;28;20471;-74
2023/04/15 13:16:34;;;;;;;2.55;1.83;;;;;;;;;;4954320;28;20058;-76
2023/04/15 13:19:02;;;;;;;2.42;2.22;;;;;;;;;;4960395;28;20049;-75
2023/04/15 13:21:31;;;;;;;3.05;1.70;;;;;;;;;;4984105;28;20066;-75
2023/04/15 13:23:57;;;;;;;3.05;1.65;;;;;;;;;;4976243;28;20045;-75
2023/04/15 13:26:24;;;;;;;3.95;1.90;;;;;;;;;;4968999;28;20068;-75
2023/04/15 13:28:51;;;;;;;2.30;1.73;;;;;;;;;;4973488;28;20069;-75
2023/04/15 13:31:18;;;;;;;3.80;1.98;;;;;;;;;;4986144;28;20066;-75
2023/04/15 13:33:44;;;;;;;2.67;1.60;;;;;;;;;;4984513;28;20046;-75
2023/04/15 13:36:11;;;;;;;6.22;1.73;;;;;;;;;;4984257;28;20142;-75
2023/04/15 13:38:38;;;;;;;4.60;1.40;;;;;;;;;;4989246;28;20070;-74
2023/04/15 13:41:05;;;;;;;3.05;1.40;;;;;;;;;;5001470;28;20049;-74
2023/04/15 13:43:33;;;;;;;3.35;1.52;;;;;;;;;;4974658;28;20060;-75
2023/04/15 13:46:00;;;;;;;3.50;1.40;;;;;;;;;;4984799;28;20137;-73
2023/04/15 13:48:27;;;;;;;2.00;1.17;;;;;;;;;;4977321;28;20060;-73
2023/04/15 13:50:54;;;;;;;1.60;0.95;;;;;;;;;;4978479;28;20520;-73
2023/04/15 13:53:23;;;;;;;3.13;1.00;;;;;;;;;;4990497;28;20112;-73
2023/04/15 13:56:13;;;;;;;2.05;0.90;;;;;;;;;;4992208;28;20054;-72
2023/04/15 13:58:44;;;;;;;2.42;1.15;;;;;;;;;;4994291;28;20111;-72
2023/04/15 14:01:12;;;;;;;2.00;0.90;;;;;;;;;;4986444;28;20050;-73
2023/04/15 14:03:39;;;;;;;3.25;0.77;;;;;;;;;;4985218;28;20502;-73
2023/04/15 14:06:06;;;;;;;2.50;0.85;;;;;;;;;;4984639;28;20049;-72
2023/04/15 14:08:33;;;;;;;1.63;0.75;;;;;;;;;;4991899;28;20119;-73
2023/04/15 14:11:01;;;;;;;0.77;0.77;;;;;;;;;;4985509;28;20061;-72
2023/04/15 14:13:28;;;;;;;1.40;1.15;;;;;;;;;;4983517;28;20085;-73
2023/04/15 14:15:56;;;;;;;1.13;0.60;;;;;;;;;;4982157;28;20413;-73
2023/04/15 14:18:22;;;;;;;1.23;0.70;;;;;;;;;;4974894;28;20077;-73
2023/04/15 14:20:49;;;;;;;1.90;0.90;;;;;;;;;;4977209;28;20136;-74
2023/04/15 14:23:16;;;;;;;2.40;0.70;;;;;;;;;;4979865;28;20137;-73
2023/04/15 14:25:43;;;;;;;2.97;0.68;;;;;;;;;;4985968;28;20050;-73
2023/04/15 14:28:13;;;;;;;1.20;0.63;;;;;;;;;;4991149;28;20097;-73
2023/04/15 14:30:40;;;;;;;1.55;1.00;;;;;;;;;;4977324;28;20061;-73
2023/04/15 14:33:07;;;;;;;1.58;0.82;;;;;;;;;;4993387;28;20092;-72
2023/04/15 14:35:35;;;;;;;0.82;0.65;;;;;;;;;;4976777;28;20058;-73
2023/04/15 14:38:01;;;;;;;3.03;1.00;;;;;;;;;;4982790;28;20060;-72
2023/04/15 14:40:29;;;;;;;1.98;0.98;;;;;;;;;;4970088;28;20100;-73
2023/04/15 14:42:56;;;;;;;4.57;1.33;;;;;;;;;;4984820;28;20517;-73
2023/04/15 14:45:23;;;;;;;3.08;1.20;;;;;;;;;;4973012;28;20061;-73
2023/04/15 14:47:49;;;;;;;1.75;0.80;;;;;;;;;;4990643;28;20057;-73
2023/04/15 14:50:18;;;;;;;7.20;1.20;;;;;;;;;;4982437;28;20073;-74